Terminal Aerodrome Forecast
Issued by NWS Twin Cities, MN

Home | Current Version | Previous Version | Text Only | Print | Product List | Glossary Off
Versions: 1 2 3 4 5 6 7 8 9 10 11 12 13 14 15 16 17 18 19 20 21 22 23

513
FTUS43 KMPX 272055 AAA
TAFMSP
TAF AMD
KMSP 272055Z 2721/2824 02007KT P6SM SCT060 BKN250
     FM281000 06004KT 4SM BR SCT250
     FM281300 06005KT P6SM FEW250=

USA.gov is the U.S. government's official web portal to all federal, state and local government web resources and services.